sensor_id;sensor_type;location;lat;lon;timestamp;noise_LAeq;noise_LA_min;noise_LA_max;noise_LA01;noise_LA95
78837;Laerm;72468;51.680;5.976;2024-02-26T06:07:40;32.74;30.21;42.95;;
78837;Laerm;72468;51.680;5.976;2024-02-26T06:11:39;32.84;29.94;42.66;;
78837;Laerm;72468;51.680;5.976;2024-02-26T06:15:39;32.82;30.04;44.53;;
78837;Laerm;72468;51.680;5.976;2024-02-26T06:19:39;34.64;29.64;46.76;;
78837;Laerm;72468;51.680;5.976;2024-02-26T06:23:39;33.01;30.56;46.42;;
78837;Laerm;72468;51.680;5.976;2024-02-26T06:27:39;32.79;31.12;41.35;;
78837;Laerm;72468;51.680;5.976;2024-02-26T06:31:39;32.8;29.15;45.13;;
78837;Laerm;72468;51.680;5.976;2024-02-26T06:35:39;33.29;30.5;47.17;;
78837;Laerm;72468;51.680;5.976;2024-02-26T06:39:39;32.85;30.29;42.47;;
78837;Laerm;72468;51.680;5.976;2024-02-26T06:43:39;33.14;29.76;44.24;;
78837;Laerm;72468;51.680;5.976;2024-02-26T06:47:39;32.71;30.43;41.33;;
78837;Laerm;72468;51.680;5.976;2024-02-26T06:51:39;32.62;30.73;43.65;;
78837;Laerm;72468;51.680;5.976;2024-02-26T06:55:39;33.79;29.4;45.6;;
78837;Laerm;72468;51.680;5.976;2024-02-26T06:59:39;33.29;30.54;43.68;;
78837;Laerm;72468;51.680;5.976;2024-02-26T07:03:40;33.22;30.68;38.34;;
78837;Laerm;72468;51.680;5.976;2024-02-26T07:07:39;34.31;30.23;46.31;;
78837;Laerm;72468;51.680;5.976;2024-02-26T07:11:39;33.2;31.06;41.41;;
78837;Laerm;72468;51.680;5.976;2024-02-26T07:15:39;32.7;31.18;37.92;;
78837;Laerm;72468;51.680;5.976;2024-02-26T07:19:39;33.77;30.39;42.71;;
78837;Laerm;72468;51.680;5.976;2024-02-26T07:23:39;33.6;29.06;43.25;;
78837;Laerm;72468;51.680;5.976;2024-02-26T07:27:39;32.94;30.2;39.07;;
78837;Laerm;72468;51.680;5.976;2024-02-26T07:31:39;33.19;31.22;39.54;;
78837;Laerm;72468;51.680;5.976;2024-02-26T07:35:39;33.16;30.78;43.37;;
78837;Laerm;72468;51.680;5.976;2024-02-26T07:39:39;33.29;30.28;40.16;;
78837;Laerm;72468;51.680;5.976;2024-02-26T07:43:39;34.17;29.83;45.42;;
78837;Laerm;72468;51.680;5.976;2024-02-26T07:47:39;34.66;30.38;48.99;;
78837;Laerm;72468;51.680;5.976;2024-02-26T07:51:39;33.26;28.85;43.73;;
78837;Laerm;72468;51.680;5.976;2024-02-26T07:55:39;32.84;30.01;42.07;;
78837;Laerm;72468;51.680;5.976;2024-02-26T07:59:40;33.79;29.71;46.38;;
78837;Laerm;72468;51.680;5.976;2024-02-26T08:03:39;33.1;29.54;44.28;;
78837;Laerm;72468;51.680;5.976;2024-02-26T08:07:39;33.51;29.62;46.95;;
78837;Laerm;72468;51.680;5.976;2024-02-26T08:11:39;33.07;29.68;41.31;;
78837;Laerm;72468;51.680;5.976;2024-02-26T08:15:39;32.59;29.64;42.76;;
78837;Laerm;72468;51.680;5.976;2024-02-26T08:19:39;33.55;28.79;47.04;;
78837;Laerm;72468;51.680;5.976;2024-02-26T08:23:39;33.21;31.06;46.51;;
78837;Laerm;72468;51.680;5.976;2024-02-26T08:27:39;32.93;29.14;44.24;;
78837;Laerm;72468;51.680;5.976;2024-02-26T08:31:39;34.61;29.52;48.22;;
78837;Laerm;72468;51.680;5.976;2024-02-26T08:35:39;33.23;30.54;45.6;;
78837;Laerm;72468;51.680;5.976;2024-02-26T08:39:39;33.43;29.65;43.47;;
78837;Laerm;72468;51.680;5.976;2024-02-26T08:43:39;32.85;30.26;42.68;;
78837;Laerm;72468;51.680;5.976;2024-02-26T08:47:39;34.19;29.88;45.16;;
78837;Laerm;72468;51.680;5.976;2024-02-26T08:51:41;33.15;29.55;47.13;;
78837;Laerm;72468;51.680;5.976;2024-02-26T08:55:39;32.96;29.03;47.46;;
78837;Laerm;72468;51.680;5.976;2024-02-26T08:59:39;32.92;30.4;42.45;;
78837;Laerm;72468;51.680;5.976;2024-02-26T09:03:39;33.54;30.69;46.56;;
78837;Laerm;72468;51.680;5.976;2024-02-26T09:07:39;33.2;30.43;42.55;;
78837;Laerm;72468;51.680;5.976;2024-02-26T09:11:39;33.05;30.13;42.87;;
78837;Laerm;72468;51.680;5.976;2024-02-26T09:15:39;33.23;29.72;40.72;;
78837;Laerm;72468;51.680;5.976;2024-02-26T09:19:39;33.49;30.8;40.29;;
78837;Laerm;72468;51.680;5.976;2024-02-26T09:23:39;33.56;30.97;40.78;;
78837;Laerm;72468;51.680;5.976;2024-02-26T09:27:39;33.88;30.95;43.49;;
78837;Laerm;72468;51.680;5.976;2024-02-26T09:31:39;33.02;31.37;37.45;;
78837;Laerm;72468;51.680;5.976;2024-02-26T09:35:39;34;30.6;45.32;;
78837;Laerm;72468;51.680;5.976;2024-02-26T09:39:39;33.33;30.55;42.66;;
78837;Laerm;72468;51.680;5.976;2024-02-26T09:43:39;34.33;30.99;47.06;;
78837;Laerm;72468;51.680;5.976;2024-02-26T09:47:39;35.25;30.17;48.8;;
78837;Laerm;72468;51.680;5.976;2024-02-26T09:51:39;33.24;31.28;42.61;;
78837;Laerm;72468;51.680;5.976;2024-02-26T09:55:39;34.48;30.6;47.48;;
78837;Laerm;72468;51.680;5.976;2024-02-26T09:59:39;33.07;31.27;41.08;;
78837;Laerm;72468;51.680;5.976;2024-02-26T10:03:40;33.42;30.85;43.77;;
78837;Laerm;72468;51.680;5.976;2024-02-26T10:07:39;33.2;31.12;45.51;;
78837;Laerm;72468;51.680;5.976;2024-02-26T10:11:39;33.72;29.57;43.27;;
78837;Laerm;72468;51.680;5.976;2024-02-26T10:15:39;33.03;30.82;38.07;;
78837;Laerm;72468;51.680;5.976;2024-02-26T10:19:39;33.75;30.5;46.07;;
78837;Laerm;72468;51.680;5.976;2024-02-26T10:23:39;33.14;31.34;39.7;;
78837;Laerm;72468;51.680;5.976;2024-02-26T10:27:40;33.49;30.44;42.17;;
78837;Laerm;72468;51.680;5.976;2024-02-26T10:31:41;34.26;30.97;44.54;;
78837;Laerm;72468;51.680;5.976;2024-02-26T10:35:39;33.34;29.7;42.72;;
78837;Laerm;72468;51.680;5.976;2024-02-26T10:39:39;33.74;30.49;46.43;;
78837;Laerm;72468;51.680;5.976;2024-02-26T10:43:39;33.11;30.68;42.54;;
78837;Laerm;72468;51.680;5.976;2024-02-26T10:47:40;33.71;30.9;46.28;;
78837;Laerm;72468;51.680;5.976;2024-02-26T10:51:39;33.01;29.66;42.83;;
78837;Laerm;72468;51.680;5.976;2024-02-26T10:55:39;32.98;30.08;41.81;;
78837;Laerm;72468;51.680;5.976;2024-02-26T10:59:39;33.19;30.64;45.38;;
78837;Laerm;72468;51.680;5.976;2024-02-26T11:03:39;34.31;30.39;47.53;;
78837;Laerm;72468;51.680;5.976;2024-02-26T11:07:39;34.28;29.55;47.9;;
78837;Laerm;72468;51.680;5.976;2024-02-26T11:11:39;33.4;30.32;44.96;;
78837;Laerm;72468;51.680;5.976;2024-02-26T11:15:39;35.37;28.41;51.84;;
78837;Laerm;72468;51.680;5.976;2024-02-26T11:19:39;33.06;30.94;40.46;;
78837;Laerm;72468;51.680;5.976;2024-02-26T11:23:39;34.35;29.85;47.64;;
78837;Laerm;72468;51.680;5.976;2024-02-26T11:27:40;34.93;30.72;46.65;;
78837;Laerm;72468;51.680;5.976;2024-02-26T11:31:39;33.87;30.36;43.71;;
78837;Laerm;72468;51.680;5.976;2024-02-26T11:35:39;34.51;30.29;45.86;;
78837;Laerm;72468;51.680;5.976;2024-02-26T11:39:39;34.31;30.28;44.03;;
78837;Laerm;72468;51.680;5.976;2024-02-26T11:43:57;33.77;30.27;46.43;;
78837;Laerm;72468;51.680;5.976;2024-02-26T11:47:39;33.01;29.87;41.42;;
78837;Laerm;72468;51.680;5.976;2024-02-26T11:51:39;34.3;30.61;49.88;;
78837;Laerm;72468;51.680;5.976;2024-02-26T11:55:39;32.98;30.68;45.18;;
78837;Laerm;72468;51.680;5.976;2024-02-26T11:59:39;32.98;30.21;40.29;;
78837;Laerm;72468;51.680;5.976;2024-02-26T12:03:39;32.81;30.25;41.37;;
78837;Laerm;72468;51.680;5.976;2024-02-26T12:07:39;33.4;30.77;42.91;;
78837;Laerm;72468;51.680;5.976;2024-02-26T12:11:39;33.59;29.78;44.82;;
78837;Laerm;72468;51.680;5.976;2024-02-26T12:15:39;33.04;29.69;44.17;;
78837;Laerm;72468;51.680;5.976;2024-02-26T12:19:39;32.78;30.34;44.86;;
78837;Laerm;72468;51.680;5.976;2024-02-26T12:23:39;33.01;30.03;41.91;;
78837;Laerm;72468;51.680;5.976;2024-02-26T12:27:39;34.88;30.17;47.1;;
78837;Laerm;72468;51.680;5.976;2024-02-26T12:31:43;34.06;30.77;45.11;;
78837;Laerm;72468;51.680;5.976;2024-02-26T12:55:40;33.81;30.79;41.97;;
78837;Laerm;72468;51.680;5.976;2024-02-26T12:59:39;33.99;31.03;47.95;;
78837;Laerm;72468;51.680;5.976;2024-02-26T13:03:39;33.07;31.16;38.94;;
78837;Laerm;72468;51.680;5.976;2024-02-26T13:07:40;33.96;30.59;45.18;;
78837;Laerm;72468;51.680;5.976;2024-02-26T13:11:39;33.81;30.93;44.1;;
78837;Laerm;72468;51.680;5.976;2024-02-26T13:15:39;34.11;29.31;52.81;;
78837;Laerm;72468;51.680;5.976;2024-02-26T13:19:48;32.99;30.01;46.29;;
78837;Laerm;72468;51.680;5.976;2024-02-26T13:23:39;33.12;30.69;43.1;;
78837;Laerm;72468;51.680;5.976;2024-02-26T13:27:39;32.61;29.85;43.26;;
78837;Laerm;72468;51.680;5.976;2024-02-26T13:31:39;34.52;30.15;47.16;;
78837;Laerm;72468;51.680;5.976;2024-02-26T13:35:39;34.31;30.33;45.59;;
78837;Laerm;72468;51.680;5.976;2024-02-26T13:39:39;33.86;30.04;46.18;;
78837;Laerm;72468;51.680;5.976;2024-02-26T13:43:39;33.22;30.66;43.49;;
78837;Laerm;72468;51.680;5.976;2024-02-26T13:47:41;34.61;29.75;47.35;;
78837;Laerm;72468;51.680;5.976;2024-02-26T13:51:39;33.28;30.32;42.16;;
78837;Laerm;72468;51.680;5.976;2024-02-26T13:55:39;33.35;30.09;40.4;;
78837;Laerm;72468;51.680;5.976;2024-02-26T13:59:39;34.21;30.44;46.55;;
78837;Laerm;72468;51.680;5.976;2024-02-26T14:03:39;33.79;30.83;44.63;;
78837;Laerm;72468;51.680;5.976;2024-02-26T14:07:39;33.67;29.05;41.11;;
78837;Laerm;72468;51.680;5.976;2024-02-26T14:11:39;33.33;29.87;40.71;;
78837;Laerm;72468;51.680;5.976;2024-02-26T14:15:39;34.03;30.55;45.03;;
78837;Laerm;72468;51.680;5.976;2024-02-26T14:19:39;33.68;30.15;41.39;;
78837;Laerm;72468;51.680;5.976;2024-02-26T14:23:39;33.52;30.25;42;;
78837;Laerm;72468;51.680;5.976;2024-02-26T14:27:39;34.17;30.49;45.17;;
78837;Laerm;72468;51.680;5.976;2024-02-26T14:31:39;34.23;30.27;45.33;;
78837;Laerm;72468;51.680;5.976;2024-02-26T14:35:39;33.9;30.51;45.04;;
78837;Laerm;72468;51.680;5.976;2024-02-26T14:39:39;34.34;30.11;45.82;;
78837;Laerm;72468;51.680;5.976;2024-02-26T14:43:39;33.03;29.78;43.81;;
78837;Laerm;72468;51.680;5.976;2024-02-26T14:47:39;33.2;29.95;50.2;;
78837;Laerm;72468;51.680;5.976;2024-02-26T14:51:39;32.74;30.06;42.11;;
78837;Laerm;72468;51.680;5.976;2024-02-26T14:55:39;33.89;30.88;48.17;;
78837;Laerm;72468;51.680;5.976;2024-02-26T14:59:39;32.86;30.88;44.36;;
78837;Laerm;72468;51.680;5.976;2024-02-26T15:03:39;33.56;30.26;43.04;;
78837;Laerm;72468;51.680;5.976;2024-02-26T15:07:39;32.8;30.35;38.53;;
78837;Laerm;72468;51.680;5.976;2024-02-26T15:11:39;33.29;30.01;42.12;;
78837;Laerm;72468;51.680;5.976;2024-02-26T15:15:39;33.48;30.68;43.31;;
78837;Laerm;72468;51.680;5.976;2024-02-26T15:19:39;32.79;30.67;43.5;;
78837;Laerm;72468;51.680;5.976;2024-02-26T15:27:39;33.78;30.19;53.38;;
78837;Laerm;72468;51.680;5.976;2024-02-26T15:31:39;33.23;30.35;43.79;;
78837;Laerm;72468;51.680;5.976;2024-02-26T15:35:39;33.37;29.6;47.63;;
78837;Laerm;72468;51.680;5.976;2024-02-26T15:39:39;33.51;29.84;46.62;;
78837;Laerm;72468;51.680;5.976;2024-02-26T15:43:39;33.47;30.55;50.4;;
78837;Laerm;72468;51.680;5.976;2024-02-26T15:47:40;32.67;30.58;38.46;;
78837;Laerm;72468;51.680;5.976;2024-02-26T15:51:39;32.9;30.9;43.91;;
78837;Laerm;72468;51.680;5.976;2024-02-26T15:55:39;41.64;30.49;69.27;;
78837;Laerm;72468;51.680;5.976;2024-02-26T15:59:39;32.76;30.76;47.99;;
78837;Laerm;72468;51.680;5.976;2024-02-26T16:03:39;32.97;29.4;43.94;;
78837;Laerm;72468;51.680;5.976;2024-02-26T16:07:40;33.37;29.57;46.38;;
78837;Laerm;72468;51.680;5.976;2024-02-26T16:11:39;32.64;30.57;43.59;;
78837;Laerm;72468;51.680;5.976;2024-02-26T16:15:39;32.89;30.57;45.83;;
78837;Laerm;72468;51.680;5.976;2024-02-26T16:19:39;32.58;30.85;40.04;;
78837;Laerm;72468;51.680;5.976;2024-02-26T16:23:39;32.59;29.34;43.52;;
78837;Laerm;72468;51.680;5.976;2024-02-26T16:27:39;33.1;30.34;44.74;;
78837;Laerm;72468;51.680;5.976;2024-02-26T16:31:39;33.86;30.05;48.09;;
78837;Laerm;72468;51.680;5.976;2024-02-26T16:35:39;33.33;29.1;45.07;;
78837;Laerm;72468;51.680;5.976;2024-02-26T16:39:39;33.84;30.21;53.07;;
78837;Laerm;72468;51.680;5.976;2024-02-26T16:43:39;34.08;30.72;49.46;;
78837;Laerm;72468;51.680;5.976;2024-02-26T16:47:39;34.11;28.58;46.39;;
78837;Laerm;72468;51.680;5.976;2024-02-26T16:51:39;32.66;31.13;41.71;;
78837;Laerm;72468;51.680;5.976;2024-02-26T16:55:39;32.68;30.21;45.55;;
78837;Laerm;72468;51.680;5.976;2024-02-26T16:59:39;32.64;30.49;46.24;;
78837;Laerm;72468;51.680;5.976;2024-02-26T17:03:39;32.18;31.41;34.82;;
78837;Laerm;72468;51.680;5.976;2024-02-26T17:07:39;32.27;30.81;36.59;;
78837;Laerm;72468;51.680;5.976;2024-02-26T17:11:39;32.98;30.4;46.52;;
78837;Laerm;72468;51.680;5.976;2024-02-26T17:15:39;32.83;30.13;40.68;;
78837;Laerm;72468;51.680;5.976;2024-02-26T17:19:39;32.68;30;44.05;;
78837;Laerm;72468;51.680;5.976;2024-02-26T17:23:39;32.24;31.1;38.66;;
78837;Laerm;72468;51.680;5.976;2024-02-26T17:27:39;32.26;30.87;37.01;;
78837;Laerm;72468;51.680;5.976;2024-02-26T17:31:39;32.14;31.21;34.53;;
78837;Laerm;72468;51.680;5.976;2024-02-26T17:35:39;32.3;30.77;39.44;;
78837;Laerm;72468;51.680;5.976;2024-02-26T17:39:39;32.54;30.57;42.14;;
78837;Laerm;72468;51.680;5.976;2024-02-26T17:43:39;32.12;30.56;34.38;;
78837;Laerm;72468;51.680;5.976;2024-02-26T17:47:39;32.28;31;41.58;;
78837;Laerm;72468;51.680;5.976;2024-02-26T17:51:39;32.17;30.8;35.13;;
78837;Laerm;72468;51.680;5.976;2024-02-26T17:55:39;32.33;30.63;40.49;;
78837;Laerm;72468;51.680;5.976;2024-02-26T17:59:39;32.36;30.3;41.77;;
78837;Laerm;72468;51.680;5.976;2024-02-26T18:03:39;32.25;31.01;39.15;;
78837;Laerm;72468;51.680;5.976;2024-02-26T18:11:39;32.23;30.78;35.44;;
78837;Laerm;72468;51.680;5.976;2024-02-26T18:15:39;32.38;30.69;40.86;;
78837;Laerm;72468;51.680;5.976;2024-02-26T18:23:39;32.21;31.05;34.68;;
78837;Laerm;72468;51.680;5.976;2024-02-26T18:27:39;32.27;30.09;35.28;;
78837;Laerm;72468;51.680;5.976;2024-02-26T18:31:39;32.26;30.92;36.58;;
78837;Laerm;72468;51.680;5.976;2024-02-26T18:35:39;32.5;30.88;41.33;;
78837;Laerm;72468;51.680;5.976;2024-02-26T18:39:39;32.34;30.98;41.34;;
78837;Laerm;72468;51.680;5.976;2024-02-26T18:43:39;32.57;30.6;43.93;;
78837;Laerm;72468;51.680;5.976;2024-02-26T18:47:39;32.23;31.52;36.69;;
78837;Laerm;72468;51.680;5.976;2024-02-26T18:51:39;32.29;30.55;37.02;;
78837;Laerm;72468;51.680;5.976;2024-02-26T18:55:39;32.23;31.37;34.72;;
78837;Laerm;72468;51.680;5.976;2024-02-26T18:59:39;32.6;30.82;44.8;;
78837;Laerm;72468;51.680;5.976;2024-02-26T19:03:39;32.64;30.76;47.16;;
78837;Laerm;72468;51.680;5.976;2024-02-26T19:07:39;32.23;30.89;34.29;;
78837;Laerm;72468;51.680;5.976;2024-02-26T19:11:39;32.28;30.89;35.19;;
78837;Laerm;72468;51.680;5.976;2024-02-26T19:15:39;32.22;31.45;35.65;;
78837;Laerm;72468;51.680;5.976;2024-02-26T19:19:39;32.19;31.32;33.35;;
78837;Laerm;72468;51.680;5.976;2024-02-26T19:23:39;32.58;31.05;40.08;;
78837;Laerm;72468;51.680;5.976;2024-02-26T19:27:39;32.27;31.3;34.42;;
78837;Laerm;72468;51.680;5.976;2024-02-26T19:31:39;32.27;30.53;35;;
78837;Laerm;72468;51.680;5.976;2024-02-26T19:35:39;32.38;30.94;37.36;;
78837;Laerm;72468;51.680;5.976;2024-02-26T19:39:39;32.31;31.04;34.87;;
78837;Laerm;72468;51.680;5.976;2024-02-26T19:43:39;32.26;31.15;35.05;;
78837;Laerm;72468;51.680;5.976;2024-02-26T19:47:39;32.25;31.31;33.91;;
78837;Laerm;72468;51.680;5.976;2024-02-26T19:51:39;32.26;30.92;33.32;;
78837;Laerm;72468;51.680;5.976;2024-02-26T19:55:41;32.3;31.33;38.36;;
78837;Laerm;72468;51.680;5.976;2024-02-26T19:59:39;32.19;30.83;34.41;;
78837;Laerm;72468;51.680;5.976;2024-02-26T20:03:39;32.26;30.23;34.31;;
78837;Laerm;72468;51.680;5.976;2024-02-26T20:07:39;32.21;31.21;36.07;;
78837;Laerm;72468;51.680;5.976;2024-02-26T20:11:39;32.29;30.84;37.46;;
78837;Laerm;72468;51.680;5.976;2024-02-26T20:15:39;32.17;31.43;33.49;;
78837;Laerm;72468;51.680;5.976;2024-02-26T20:19:39;32.47;30.53;41.06;;
78837;Laerm;72468;51.680;5.976;2024-02-26T20:23:39;32.48;30.87;44.27;;
78837;Laerm;72468;51.680;5.976;2024-02-26T20:27:39;32.32;31.31;39.23;;
78837;Laerm;72468;51.680;5.976;2024-02-26T20:31:39;32.24;31.13;36.08;;
78837;Laerm;72468;51.680;5.976;2024-02-26T20:35:39;32.35;31.32;46.32;;
78837;Laerm;72468;51.680;5.976;2024-02-26T20:39:39;32.33;30.3;36.51;;
78837;Laerm;72468;51.680;5.976;2024-02-26T20:43:40;32.24;31.53;36.05;;
78837;Laerm;72468;51.680;5.976;2024-02-26T20:47:39;32.2;31.03;33.45;;
78837;Laerm;72468;51.680;5.976;2024-02-26T20:51:39;32.19;30.85;34.5;;
78837;Laerm;72468;51.680;5.976;2024-02-26T20:55:39;32.37;30.45;40.05;;
78837;Laerm;72468;51.680;5.976;2024-02-26T20:59:39;32.7;29.87;44.06;;
78837;Laerm;72468;51.680;5.976;2024-02-26T21:03:39;32.75;30.72;43.25;;
78837;Laerm;72468;51.680;5.976;2024-02-26T21:07:39;32.44;30.8;41.19;;
78837;Laerm;72468;51.680;5.976;2024-02-26T21:11:39;32.45;31.19;39.44;;
78837;Laerm;72468;51.680;5.976;2024-02-26T21:15:39;32.2;31.46;33.78;;
78837;Laerm;72468;51.680;5.976;2024-02-26T21:19:39;32.2;30.97;33.99;;
78837;Laerm;72468;51.680;5.976;2024-02-26T21:23:39;32.21;31.57;36.12;;
78837;Laerm;72468;51.680;5.976;2024-02-26T21:27:39;32.24;30.6;40.15;;
78837;Laerm;72468;51.680;5.976;2024-02-26T21:31:39;32.22;31.24;33.52;;
78837;Laerm;72468;51.680;5.976;2024-02-26T21:35:39;32.34;30.71;39.58;;
78837;Laerm;72468;51.680;5.976;2024-02-26T21:39:39;32.25;31.49;33.77;;
78837;Laerm;72468;51.680;5.976;2024-02-26T21:43:39;32.24;31.67;33.12;;
78837;Laerm;72468;51.680;5.976;2024-02-26T21:47:39;32.22;31.33;33.46;;
78837;Laerm;72468;51.680;5.976;2024-02-26T21:51:41;32.23;31.57;33.01;;
78837;Laerm;72468;51.680;5.976;2024-02-26T21:55:39;32.17;31.6;32.92;;
78837;Laerm;72468;51.680;5.976;2024-02-26T21:59:39;32.16;30.99;33.3;;
78837;Laerm;72468;51.680;5.976;2024-02-26T22:03:39;32.18;31.57;36.04;;
78837;Laerm;72468;51.680;5.976;2024-02-26T22:07:39;32.17;31.36;33.86;;
78837;Laerm;72468;51.680;5.976;2024-02-26T22:11:39;32.18;30.97;33.94;;
78837;Laerm;72468;51.680;5.976;2024-02-26T22:15:39;32.14;31.55;32.76;;
78837;Laerm;72468;51.680;5.976;2024-02-26T22:19:39;32.17;30.31;35.12;;
78837;Laerm;72468;51.680;5.976;2024-02-26T22:23:39;32.25;29.6;37.45;;
78837;Laerm;72468;51.680;5.976;2024-02-26T22:27:39;32.15;31.58;32.7;;
78837;Laerm;72468;51.680;5.976;2024-02-26T22:31:39;32.16;31.39;32.79;;
78837;Laerm;72468;51.680;5.976;2024-02-26T22:35:39;32.19;31.6;35.2;;
78837;Laerm;72468;51.680;5.976;2024-02-26T22:39:39;32.16;30.72;34.63;;
78837;Laerm;72468;51.680;5.976;2024-02-26T22:43:39;32.15;31.55;33.27;;
78837;Laerm;72468;51.680;5.976;2024-02-26T22:47:39;32.15;31.52;33.35;;
78837;Laerm;72468;51.680;5.976;2024-02-26T22:51:40;32.15;31.49;33.25;;
78837;Laerm;72468;51.680;5.976;2024-02-26T22:55:39;32.18;31.54;33.12;;
78837;Laerm;72468;51.680;5.976;2024-02-26T22:59:39;32.16;31.6;33.28;;
78837;Laerm;72468;51.680;5.976;2024-02-26T23:03:39;32.15;31.41;35.21;;
78837;Laerm;72468;51.680;5.976;2024-02-26T23:07:39;32.16;31.57;32.98;;
78837;Laerm;72468;51.680;5.976;2024-02-26T23:11:39;32.17;31.55;32.72;;
78837;Laerm;72468;51.680;5.976;2024-02-26T23:15:39;32.18;31.37;32.66;;
78837;Laerm;72468;51.680;5.976;2024-02-26T23:19:39;32.19;31.6;33.17;;
78837;Laerm;72468;51.680;5.976;2024-02-26T23:23:39;32.24;31.7;37.77;;
78837;Laerm;72468;51.680;5.976;2024-02-26T23:27:41;32.17;31.58;32.78;;
78837;Laerm;72468;51.680;5.976;2024-02-26T23:31:39;32.2;31.28;33.4;;
78837;Laerm;72468;51.680;5.976;2024-02-26T23:35:39;32.21;30.48;34.49;;
78837;Laerm;72468;51.680;5.976;2024-02-26T23:39:39;32.21;31.69;38.34;;
78837;Laerm;72468;51.680;5.976;2024-02-26T23:43:39;32.32;30.04;38.93;;
78837;Laerm;72468;51.680;5.976;2024-02-26T23:47:39;32.2;31.65;32.65;;
78837;Laerm;72468;51.680;5.976;2024-02-26T23:51:39;32.21;31.6;32.81;;
78837;Laerm;72468;51.680;5.976;2024-02-26T23:55:41;32.21;31.63;32.73;;
78837;Laerm;72468;51.680;5.976;2024-02-26T23:59:39;32.25;31.03;35.66;;
